Cruise inventory

RRS Charles Darwin CD78

Cruise summary report

Cruise Info. 
Ship name (ship code)RRS Charles Darwin (74AB)
Cruise identifierCD78
Cruise period1993-04-21 — 1993-05-25
StatusCompleted
Port of departurePonta Delgada, Portugal
Port of returnLisbon, Portugal
PurposeResearch
ObjectivesThis was the third and last scheduled "tracer documentation" cruise associated with the North Atlantic Tracer Release Experiment (NATRE). Its object was to study the rates of both vertical and horizontal mixing in the main pycnocline of the Northeast Atlantic subtropical gyre, using a release of sulphur hexafluoride tracer, marked by neutrally buoyant floats. The task of the present cruise was to document the distribution of the tracer one year after release.
Chief scientistAndrew J Watson (Plymouth Marine Laboratory)
ProjectWOCE
Cruise reportRRS Charles Darwin CD78 cruise report cd78.pdf — access key 'C' (2.61 MB) 
Ocean/sea areas 
GeneralNorth East Atlantic Ocean (limit 40W)
SpecificCanaries
Track chartsRRS Charles Darwin CD78 cruise track — cd78track.pdf (00 MB) 
Measurements 
Physical oceanography 
Water bottle stationsQuantity: number of deployments = 32
Description: GC Calibration. GC A: No. of deployments: 17 Max error range: 96.72-1823.3 GC B: No. of deployments: 15 Max error range: 176.54-1724.73
CTD stationsQuantity: number of observations = 241
Description: 241 casts at various stations. Types of cast: 4 x Background 216 x Full 6 x Sled 15 x Short
Subsurface temperature and salinity measurementsQuantity: number of deployments = 4
Description: Sled tows
Data held at BODC 
Series/Profiles 
205  CTD/STD cast
Density of the water column
Vertical spatial coordinates
Salinity of the water column
Temperature of the water column
Density of the water column
Vertical spatial coordinates
Salinity of the water column
Temperature of the water column

BODC idDate/TimeLocationDoc.
9775281993-05-02 18:07 23° 30' 9" N  32° 23' 59" W  View metadata report for BODC series reference number 977528
9775411993-05-02 20:48 23° 29' 58" N  32° 8' 10" W  View metadata report for BODC series reference number 977541
9775531993-05-03 01:32 23° 30' 33" N  31° 51' 42" W  View metadata report for BODC series reference number 977553
9775651993-05-03 04:38 23° 30' 9" N  31° 35' 18" W  View metadata report for BODC series reference number 977565
9775771993-05-03 07:15 23° 29' 54" N  31° 19' 12" W  View metadata report for BODC series reference number 977577
9775891993-05-03 09:51 23° 30' 7" N  31° 3' 1" W  View metadata report for BODC series reference number 977589
9775901993-05-03 12:25 23° 30' 16" N  30° 46' 46" W  View metadata report for BODC series reference number 977590
9776081993-05-03 16:37 23° 30' 1" N  30° 30' 15" W  View metadata report for BODC series reference number 977608
9776211993-05-03 19:21 23° 30' 7" N  30° 14' 13" W  View metadata report for BODC series reference number 977621
9776331993-05-03 22:12 23° 29' 53" N  29° 58' 9" W  View metadata report for BODC series reference number 977633
9776451993-05-04 00:47 23° 30' 18" N  29° 41' 41" W  View metadata report for BODC series reference number 977645
9776571993-05-04 03:46 23° 30' 15" N  29° 25' 11" W  View metadata report for BODC series reference number 977657
9776691993-05-04 06:32 23° 29' 55" N  29° 8' 43" W  View metadata report for BODC series reference number 977669
9776701993-05-04 09:08 23° 30' 7" N  28° 52' 27" W  View metadata report for BODC series reference number 977670
9776821993-05-04 11:53 23° 30' 11" N  28° 36' 10" W  View metadata report for BODC series reference number 977682
9776941993-05-04 14:28 23° 30' 10" N  28° 19' 30" W  View metadata report for BODC series reference number 977694
9777011993-05-04 16:59 23° 30' 15" N  28° 3' 25" W  View metadata report for BODC series reference number 977701
9777131993-05-04 19:36 23° 45' 2" N  27° 59' 50" W  View metadata report for BODC series reference number 977713
9777251993-05-04 22:28 23° 59' 56" N  27° 59' 48" W  View metadata report for BODC series reference number 977725
9777371993-05-05 02:52 24° 29' 56" N  27° 59' 59" W  View metadata report for BODC series reference number 977737
9777491993-05-05 06:03 24° 29' 54" N  28° 16' 31" W  View metadata report for BODC series reference number 977749
9777501993-05-05 08:31 24° 30' 13" N  28° 32' 52" W  View metadata report for BODC series reference number 977750
9777621993-05-05 10:40 24° 30' 7" N  28° 43' 51" W  View metadata report for BODC series reference number 977762
9777741993-05-05 12:50 24° 30' 7" N  28° 54' 54" W  View metadata report for BODC series reference number 977774
9777861993-05-05 15:22 24° 30' 20" N  29° 11' 17" W  View metadata report for BODC series reference number 977786
9777981993-05-05 18:16 24° 30' 1" N  29° 27' 45" W  View metadata report for BODC series reference number 977798
9778051993-05-05 20:44 24° 29' 53" N  29° 44' 28" W  View metadata report for BODC series reference number 977805
9778171993-05-05 23:10 24° 30' 0" N  30° 0' 29" W  View metadata report for BODC series reference number 977817
9778291993-05-06 01:37 24° 29' 43" N  30° 17' 3" W  View metadata report for BODC series reference number 977829
9778301993-05-06 04:05 24° 30' 10" N  30° 33' 32" W  View metadata report for BODC series reference number 977830
9778421993-05-06 06:15 24° 29' 58" N  30° 50' 14" W  View metadata report for BODC series reference number 977842
9778541993-05-06 16:19 24° 44' 58" N  31° 6' 24" W  View metadata report for BODC series reference number 977854
9778661993-05-06 18:47 24° 30' 2" N  31° 6' 35" W  View metadata report for BODC series reference number 977866
9778781993-05-06 21:44 24° 45' 1" N  30° 50' 0" W  View metadata report for BODC series reference number 977878
9778911993-05-07 00:14 24° 58' 16" N  30° 43' 38" W  View metadata report for BODC series reference number 977891
9779091993-05-07 02:40 25° 12' 38" N  30° 37' 2" W  View metadata report for BODC series reference number 977909
9779101993-05-07 04:54 25° 26' 28" N  30° 29' 58" W  View metadata report for BODC series reference number 977910
9779221993-05-07 07:12 25° 39' 57" N  30° 23' 0" W  View metadata report for BODC series reference number 977922
9779341993-05-07 09:30 25° 53' 47" N  30° 16' 7" W  View metadata report for BODC series reference number 977934
9779461993-05-07 11:52 26° 7' 50" N  30° 9' 38" W  View metadata report for BODC series reference number 977946
9779581993-05-07 14:11 26° 7' 52" N  29° 52' 58" W  View metadata report for BODC series reference number 977958
9779711993-05-07 17:44 26° 21' 42" N  29° 35' 51" W  View metadata report for BODC series reference number 977971
9779831993-05-08 09:54 26° 22' 5" N  29° 34' 59" W  View metadata report for BODC series reference number 977983
9779951993-05-08 12:52 26° 22' 27" N  29° 52' 26" W  View metadata report for BODC series reference number 977995
9780091993-05-08 15:12 26° 22' 16" N  30° 9' 11" W  View metadata report for BODC series reference number 978009
9780101993-05-08 17:37 26° 22' 12" N  30° 26' 2" W  View metadata report for BODC series reference number 978010
9780221993-05-08 20:15 26° 22' 1" N  30° 47' 4" W  View metadata report for BODC series reference number 978022
9780341993-05-08 22:37 26° 8' 19" N  30° 54' 4" W  View metadata report for BODC series reference number 978034
9780461993-05-09 00:53 25° 54' 22" N  31° 0' 16" W  View metadata report for BODC series reference number 978046
9780581993-05-09 03:12 25° 41' 10" N  31° 7' 14" W  View metadata report for BODC series reference number 978058
9780711993-05-09 05:27 25° 27' 0" N  31° 14' 12" W  View metadata report for BODC series reference number 978071
9780831993-05-09 07:35 25° 13' 0" N  31° 20' 34" W  View metadata report for BODC series reference number 978083
9780951993-05-09 10:14 24° 59' 13" N  31° 27' 2" W  View metadata report for BODC series reference number 978095
9781021993-05-09 12:26 24° 45' 55" N  31° 34' 4" W  View metadata report for BODC series reference number 978102
9781141993-05-09 18:09 24° 29' 57" N  31° 41' 34" W  View metadata report for BODC series reference number 978114
9781261993-05-09 20:39 24° 29' 56" N  31° 57' 45" W  View metadata report for BODC series reference number 978126
9781381993-05-09 23:06 24° 30' 7" N  32° 14' 21" W  View metadata report for BODC series reference number 978138
9781511993-05-10 01:26 24° 30' 1" N  32° 30' 54" W  View metadata report for BODC series reference number 978151
9781631993-05-10 03:45 24° 29' 51" N  32° 47' 10" W  View metadata report for BODC series reference number 978163
9781751993-05-10 05:50 24° 29' 53" N  32° 58' 3" W  View metadata report for BODC series reference number 978175
9781871993-05-10 07:48 24° 29' 52" N  33° 9' 5" W  View metadata report for BODC series reference number 978187
9781991993-05-10 09:44 24° 30' 6" N  33° 19' 47" W  View metadata report for BODC series reference number 978199
9782061993-05-10 11:40 24° 30' 5" N  33° 30' 47" W  View metadata report for BODC series reference number 978206
9782181993-05-10 13:41 24° 30' 4" N  33° 41' 53" W  View metadata report for BODC series reference number 978218
9782311993-05-10 15:37 24° 30' 13" N  33° 52' 54" W  View metadata report for BODC series reference number 978231
9782431993-05-10 17:40 24° 30' 15" N  34° 4' 12" W  View metadata report for BODC series reference number 978243
9782551993-05-10 19:32 24° 30' 9" N  34° 15' 7" W  View metadata report for BODC series reference number 978255
9782671993-05-10 21:35 24° 29' 57" N  34° 26' 7" W  View metadata report for BODC series reference number 978267
9782791993-05-10 23:23 24° 29' 58" N  34° 37' 9" W  View metadata report for BODC series reference number 978279
9782801993-05-11 01:13 24° 30' 5" N  34° 47' 48" W  View metadata report for BODC series reference number 978280
9782921993-05-11 03:04 24° 30' 12" N  34° 58' 57" W  View metadata report for BODC series reference number 978292
9783111993-05-11 05:33 24° 30' 7" N  35° 15' 20" W  View metadata report for BODC series reference number 978311
9783231993-05-11 07:51 24° 30' 9" N  35° 31' 57" W  View metadata report for BODC series reference number 978323
9783351993-05-11 10:12 24° 29' 44" N  35° 48' 31" W  View metadata report for BODC series reference number 978335
9783471993-05-11 12:25 24° 29' 52" N  36° 4' 54" W  View metadata report for BODC series reference number 978347
9783591993-05-11 14:51 24° 29' 52" N  36° 21' 11" W  View metadata report for BODC series reference number 978359
9783601993-05-11 17:01 24° 29' 43" N  36° 37' 44" W  View metadata report for BODC series reference number 978360
9783721993-05-11 19:14 24° 29' 56" N  36° 53' 59" W  View metadata report for BODC series reference number 978372
9783841993-05-11 21:29 24° 29' 52" N  37° 10' 22" W  View metadata report for BODC series reference number 978384
9783961993-05-11 23:55 24° 45' 6" N  37° 10' 34" W  View metadata report for BODC series reference number 978396
9784031993-05-12 02:41 24° 59' 46" N  36° 53' 58" W  View metadata report for BODC series reference number 978403
9784151993-05-12 05:10 25° 14' 58" N  36° 53' 45" W  View metadata report for BODC series reference number 978415
9784271993-05-12 08:15 25° 30' 1" N  36° 37' 36" W  View metadata report for BODC series reference number 978427
9784391993-05-12 10:40 25° 45' 0" N  36° 37' 28" W  View metadata report for BODC series reference number 978439
9784401993-05-12 13:33 25° 59' 43" N  36° 37' 38" W  View metadata report for BODC series reference number 978440
9784521993-05-12 16:06 26° 15' 9" N  36° 37' 58" W  View metadata report for BODC series reference number 978452
9784641993-05-12 18:33 26° 29' 41" N  36° 37' 34" W  View metadata report for BODC series reference number 978464
9784761993-05-12 21:05 26° 44' 52" N  36° 37' 41" W  View metadata report for BODC series reference number 978476
9784881993-05-12 23:33 27° 0' 0" N  36° 37' 47" W  View metadata report for BODC series reference number 978488
9785071993-05-13 02:44 27° 15' 11" N  36° 20' 46" W  View metadata report for BODC series reference number 978507
9785191993-05-13 05:46 27° 30' 3" N  36° 3' 42" W  View metadata report for BODC series reference number 978519
9785201993-05-13 08:24 27° 40' 34" N  35° 51' 32" W  View metadata report for BODC series reference number 978520
9785321993-05-13 10:59 27° 40' 46" N  35° 34' 27" W  View metadata report for BODC series reference number 978532
9785441993-05-13 13:09 27° 40' 54" N  35° 17' 58" W  View metadata report for BODC series reference number 978544
9785561993-05-13 15:28 27° 40' 51" N  35° 0' 7" W  View metadata report for BODC series reference number 978556
9785681993-05-13 17:49 27° 40' 36" N  34° 42' 11" W  View metadata report for BODC series reference number 978568
9785811993-05-13 20:10 27° 25' 42" N  34° 37' 28" W  View metadata report for BODC series reference number 978581
9785931993-05-13 22:18 27° 12' 34" N  34° 33' 54" W  View metadata report for BODC series reference number 978593
9786001993-05-14 00:23 27° 0' 6" N  34° 30' 0" W  View metadata report for BODC series reference number 978600
9786121993-05-14 02:42 26° 45' 2" N  34° 29' 50" W  View metadata report for BODC series reference number 978612
9786241993-05-14 04:56 26° 30' 8" N  34° 30' 5" W  View metadata report for BODC series reference number 978624
9786361993-05-14 07:06 26° 29' 50" N  34° 46' 51" W  View metadata report for BODC series reference number 978636
9786481993-05-14 09:16 26° 30' 10" N  35° 3' 29" W  View metadata report for BODC series reference number 978648
9786611993-05-14 11:31 26° 30' 15" N  35° 20' 21" W  View metadata report for BODC series reference number 978661
9786731993-05-14 13:45 26° 30' 7" N  35° 37' 5" W  View metadata report for BODC series reference number 978673
9786851993-05-14 17:12 26° 0' 8" N  35° 36' 58" W  View metadata report for BODC series reference number 978685
9786971993-05-14 19:28 25° 45' 6" N  35° 36' 52" W  View metadata report for BODC series reference number 978697
9787041993-05-14 21:46 25° 30' 5" N  35° 36' 58" W  View metadata report for BODC series reference number 978704
9787161993-05-15 01:22 25° 7' 19" N  35° 15' 3" W  View metadata report for BODC series reference number 978716
9787281993-05-15 09:34 24° 15' 7" N  34° 24' 48" W  View metadata report for BODC series reference number 978728
9787411993-05-15 11:18 24° 16' 19" N  34° 24' 41" W  View metadata report for BODC series reference number 978741
9787531993-05-15 16:32 24° 20' 57" N  34° 24' 25" W  View metadata report for BODC series reference number 978753
9787651993-05-16 02:51 24° 53' 29" N  34° 22' 30" W  View metadata report for BODC series reference number 978765
9787771993-05-16 21:33 23° 36' 46" N  32° 39' 29" W  View metadata report for BODC series reference number 978777
9787891993-05-17 22:28 22° 31' 52" N  31° 16' 45" W  View metadata report for BODC series reference number 978789
9787901993-05-18 00:44 22° 27' 15" N  31° 2' 19" W  View metadata report for BODC series reference number 978790
9788081993-05-18 03:00 22° 21' 47" N  30° 46' 59" W  View metadata report for BODC series reference number 978808
9788211993-05-18 05:13 22° 16' 15" N  30° 31' 45" W  View metadata report for BODC series reference number 978821
9788331993-05-18 07:21 22° 1' 24" N  30° 31' 45" W  View metadata report for BODC series reference number 978833
9788451993-05-18 09:37 21° 46' 23" N  30° 31' 37" W  View metadata report for BODC series reference number 978845
9788571993-05-18 11:49 21° 31' 11" N  30° 30' 35" W  View metadata report for BODC series reference number 978857
9788691993-05-18 13:54 21° 20' 38" N  30° 31' 55" W  View metadata report for BODC series reference number 978869
9788701993-05-18 16:08 21° 31' 17" N  30° 21' 23" W  View metadata report for BODC series reference number 978870
9788821993-05-18 18:15 21° 41' 39" N  30° 9' 56" W  View metadata report for BODC series reference number 978882
9788941993-05-18 20:39 21° 52' 5" N  29° 58' 20" W  View metadata report for BODC series reference number 978894
9789011993-05-18 22:49 22° 1' 56" N  29° 46' 48" W  View metadata report for BODC series reference number 978901
9789131993-05-19 00:46 22° 12' 36" N  29° 36' 8" W  View metadata report for BODC series reference number 978913
9789251993-05-19 02:41 22° 23' 9" N  29° 24' 25" W  View metadata report for BODC series reference number 978925
9789371993-05-19 04:40 22° 34' 7" N  29° 12' 48" W  View metadata report for BODC series reference number 978937
9789491993-05-19 06:35 22° 44' 2" N  29° 1' 31" W  View metadata report for BODC series reference number 978949
9789501993-05-19 09:03 22° 58' 21" N  28° 45' 55" W  View metadata report for BODC series reference number 978950
9767091993-04-30 22:26 22° 59' 58" N  35° 16' 2" W  View metadata report for BODC series reference number 976709
9767101993-04-27 06:24 23° 23' 6" N  32° 59' 55" W  View metadata report for BODC series reference number 976710
9767221993-04-27 09:08 23° 9' 16" N  33° 6' 47" W  View metadata report for BODC series reference number 976722
9767341993-04-27 11:55 22° 55' 3" N  33° 13' 16" W  View metadata report for BODC series reference number 976734
9767461993-04-27 14:32 22° 41' 7" N  33° 19' 43" W  View metadata report for BODC series reference number 976746
9767581993-04-27 17:05 22° 28' 12" N  33° 25' 59" W  View metadata report for BODC series reference number 976758
9767711993-04-27 19:50 22° 14' 25" N  33° 32' 30" W  View metadata report for BODC series reference number 976771
9767831993-04-27 22:30 22° 0' 28" N  33° 39' 1" W  View metadata report for BODC series reference number 976783
9767951993-04-28 01:08 21° 46' 39" N  33° 45' 15" W  View metadata report for BODC series reference number 976795
9768021993-04-28 04:15 21° 32' 7" N  33° 51' 52" W  View metadata report for BODC series reference number 976802
9768141993-04-28 06:53 21° 19' 1" N  33° 58' 54" W  View metadata report for BODC series reference number 976814
9768261993-04-28 10:43 21° 19' 17" N  33° 26' 54" W  View metadata report for BODC series reference number 976826
9768381993-04-28 14:09 21° 19' 5" N  32° 54' 27" W  View metadata report for BODC series reference number 976838
9768511993-04-28 17:40 21° 19' 4" N  32° 22' 25" W  View metadata report for BODC series reference number 976851
9768631993-04-28 18:18 21° 19' 28" N  32° 22' 19" W  View metadata report for BODC series reference number 976863
9768751993-04-28 22:04 21° 18' 56" N  31° 50' 16" W  View metadata report for BODC series reference number 976875
9768871993-04-28 22:42 21° 19' 9" N  31° 50' 12" W  View metadata report for BODC series reference number 976887
9768991993-04-29 01:48 21° 41' 56" N  31° 49' 29" W  View metadata report for BODC series reference number 976899
9769061993-04-29 05:04 22° 6' 6" N  31° 50' 10" W  View metadata report for BODC series reference number 976906
9769181993-04-29 08:23 22° 29' 58" N  31° 50' 24" W  View metadata report for BODC series reference number 976918
9769311993-04-29 10:46 22° 29' 56" N  32° 4' 17" W  View metadata report for BODC series reference number 976931
9769431993-04-29 13:17 22° 30' 11" N  32° 20' 6" W  View metadata report for BODC series reference number 976943
9769551993-04-29 15:53 22° 29' 58" N  32° 36' 11" W  View metadata report for BODC series reference number 976955
9769671993-04-29 18:30 22° 29' 58" N  32° 52' 2" W  View metadata report for BODC series reference number 976967
9769791993-04-29 21:24 22° 30' 1" N  33° 7' 45" W  View metadata report for BODC series reference number 976979
9769801993-04-30 01:17 22° 30' 8" N  33° 40' 9" W  View metadata report for BODC series reference number 976980
9769921993-04-30 04:17 22° 29' 32" N  33° 55' 57" W  View metadata report for BODC series reference number 976992
9770061993-04-30 07:07 22° 29' 36" N  34° 11' 56" W  View metadata report for BODC series reference number 977006
9770181993-04-30 09:47 22° 29' 59" N  34° 28' 5" W  View metadata report for BODC series reference number 977018
9770311993-04-30 12:18 22° 29' 26" N  34° 43' 58" W  View metadata report for BODC series reference number 977031
9770431993-04-30 14:36 22° 29' 31" N  34° 59' 50" W  View metadata report for BODC series reference number 977043
9770551993-04-30 17:00 22° 29' 51" N  35° 16' 12" W  View metadata report for BODC series reference number 977055
9770671993-04-30 19:50 22° 44' 58" N  35° 16' 5" W  View metadata report for BODC series reference number 977067
9770791993-04-22 19:23 35° 55' 45" N  26° 38' 2" W  View metadata report for BODC series reference number 977079
9770801993-04-24 13:36 29° 0' 19" N  30° 14' 49" W  View metadata report for BODC series reference number 977080
9770921993-04-24 19:14 28° 17' 7" N  30° 36' 58" W  View metadata report for BODC series reference number 977092
9771111993-04-25 00:44 27° 33' 13" N  30° 58' 0" W  View metadata report for BODC series reference number 977111
9771231993-04-25 06:26 26° 49' 51" N  31° 20' 7" W  View metadata report for BODC series reference number 977123
9771351993-04-25 09:27 26° 31' 59" N  31° 27' 44" W  View metadata report for BODC series reference number 977135
9771471993-04-25 11:49 26° 22' 12" N  31° 32' 55" W  View metadata report for BODC series reference number 977147
9771591993-04-25 14:00 26° 13' 8" N  31° 37' 58" W  View metadata report for BODC series reference number 977159
9771601993-04-25 16:00 26° 4' 10" N  31° 42' 50" W  View metadata report for BODC series reference number 977160
9771721993-04-25 18:16 25° 54' 59" N  31° 47' 3" W  View metadata report for BODC series reference number 977172
9771841993-04-25 20:42 25° 45' 54" N  31° 51' 28" W  View metadata report for BODC series reference number 977184
9771961993-04-25 23:00 25° 35' 49" N  31° 56' 22" W  View metadata report for BODC series reference number 977196
9772031993-04-26 01:02 25° 26' 55" N  32° 0' 49" W  View metadata report for BODC series reference number 977203
9772151993-04-26 03:07 25° 18' 13" N  32° 4' 52" W  View metadata report for BODC series reference number 977215
9772271993-04-26 05:31 25° 8' 51" N  32° 9' 55" W  View metadata report for BODC series reference number 977227
9772391993-04-26 08:02 24° 59' 37" N  32° 14' 14" W  View metadata report for BODC series reference number 977239
9772401993-04-26 10:48 24° 50' 20" N  32° 18' 0" W  View metadata report for BODC series reference number 977240
9772521993-04-26 13:04 24° 41' 13" N  32° 22' 40" W  View metadata report for BODC series reference number 977252
9772641993-04-26 15:25 24° 32' 6" N  32° 27' 42" W  View metadata report for BODC series reference number 977264
9772761993-04-26 17:39 24° 23' 6" N  32° 32' 8" W  View metadata report for BODC series reference number 977276
9772881993-04-26 19:52 24° 13' 38" N  32° 36' 21" W  View metadata report for BODC series reference number 977288
9773071993-04-26 22:22 24° 4' 57" N  32° 40' 52" W  View metadata report for BODC series reference number 977307
9773191993-04-27 01:03 23° 50' 53" N  32° 47' 8" W  View metadata report for BODC series reference number 977319
9773201993-04-27 03:41 23° 37' 16" N  32° 53' 58" W  View metadata report for BODC series reference number 977320
9773321993-05-01 01:01 23° 15' 22" N  35° 16' 3" W  View metadata report for BODC series reference number 977332
9773441993-05-01 03:24 23° 30' 17" N  35° 16' 16" W  View metadata report for BODC series reference number 977344
9773561993-05-01 06:02 23° 29' 52" N  34° 59' 46" W  View metadata report for BODC series reference number 977356
9773681993-05-01 08:35 23° 30' 2" N  34° 44' 2" W  View metadata report for BODC series reference number 977368
9773811993-05-01 12:37 23° 30' 13" N  34° 12' 22" W  View metadata report for BODC series reference number 977381
9773931993-05-01 15:00 23° 30' 6" N  33° 55' 32" W  View metadata report for BODC series reference number 977393
9774001993-05-01 16:58 23° 30' 7" N  33° 39' 20" W  View metadata report for BODC series reference number 977400
9774121993-05-01 17:29 23° 30' 27" N  33° 39' 22" W  View metadata report for BODC series reference number 977412
9774241993-05-01 19:49 23° 30' 7" N  33° 23' 0" W  View metadata report for BODC series reference number 977424
9774361993-05-01 22:21 23° 29' 52" N  33° 7' 2" W  View metadata report for BODC series reference number 977436
9774481993-05-02 00:57 23° 30' 8" N  32° 50' 34" W  View metadata report for BODC series reference number 977448
9774611993-05-02 03:16 23° 37' 32" N  32° 58' 10" W  View metadata report for BODC series reference number 977461
9774731993-05-02 05:27 23° 45' 2" N  32° 58' 40" W  View metadata report for BODC series reference number 977473
9774851993-05-02 07:29 23° 44' 55" N  33° 6' 46" W  View metadata report for BODC series reference number 977485
9774971993-05-02 09:56 23° 37' 17" N  33° 15' 12" W  View metadata report for BODC series reference number 977497
9775041993-05-02 11:42 23° 37' 34" N  33° 6' 50" W  View metadata report for BODC series reference number 977504
9775161993-05-02 15:09 23° 37' 36" N  32° 39' 34" W  View metadata report for BODC series reference number 977516
Discrete samples 
205  CTD frame plus rosette samplerDensity of the water column
Salinity of the water column
Temperature of the water column